Terminal Aerodrome Forecast
Issued by NWS

Home | Current Version | Previous Version | Text Only | Print | Product List | Glossary On
Versions: 1 2 3 4 5 6 7 8 9 10 11 12 13 14 15 16 17 18 19 20 21 22 23 24 25 26
000
FTUS41 KBOX 261131
TAFACK
TAF
KACK 261131Z 2612/2712 20011KT 6SM BR SCT005 BKN025
     FM261300 21012G21KT 6SM BR OVC005
     FM270200 32010KT P6SM BKN060
     FM270500 32006KT P6SM BKN030
     FM271000 33010KT P6SM BKN030=

USA.gov is the U.S. government's official web portal to all federal, state and local government web resources and services.